Time;durP1;ratioP1;P1;durP2;ratioP2;P2;SDS_P1;SDS_P2;PMS_P1;PMS_P2;Temp;Humidity;BMP_temperature;BMP_pressure;BME280_temperature;BME280_humidity;BME280_pressure;Samples;Min_cycle;Max_cycle;Signal;HPM_P1;HPM_P2
2022/03/29 00:01:14;;;;;;;8.27;3.90;;;6.50;99.90;;;;;;5052485;28;20060;-74
2022/03/29 00:03:40;;;;;;;3.92;3.03;;;6.50;99.90;;;;;;5052228;28;20080;-73
2022/03/29 00:06:06;;;;;;;6.55;3.95;;;6.50;99.90;;;;;;5037582;28;20509;-72
2022/03/29 00:08:31;;;;;;;;;;;6.50;99.90;;;;;;5052916;28;20043;-74
2022/03/29 00:10:57;;;;;;;6.72;3.28;;;6.50;99.90;;;;;;5065835;28;20361;-72
2022/03/29 00:13:23;;;;;;;3.55;3.25;;;6.40;99.90;;;;;;5042767;28;20103;-72
2022/03/29 00:15:49;;;;;;;8.55;3.80;;;6.50;99.90;;;;;;5024300;28;20118;-71
2022/03/29 00:18:15;;;;;;;6.28;4.28;;;6.40;99.90;;;;;;5058653;28;20040;-75
2022/03/29 00:20:41;;;;;;;6.57;4.40;;;6.40;99.90;;;;;;5062813;28;20524;-73
2022/03/29 00:23:06;;;;;;;6.03;4.00;;;6.40;99.90;;;;;;5051173;28;20068;-74
2022/03/29 00:25:32;;;;;;;8.40;5.80;;;6.40;99.90;;;;;;5053034;28;20064;-72
2022/03/29 00:27:58;;;;;;;;;;;6.40;99.90;;;;;;5064341;28;20101;-72
2022/03/29 00:30:24;;;;;;;6.80;3.72;;;6.40;99.90;;;;;;5055032;28;20340;-72
2022/03/29 00:32:50;;;;;;;5.35;4.18;;;6.40;99.90;;;;;;5051516;28;20041;-72
2022/03/29 00:35:15;;;;;;;6.43;4.78;;;6.40;99.90;;;;;;5059642;28;20060;-73
2022/03/29 00:37:42;;;;;;;5.13;3.67;;;6.40;99.90;;;;;;5034342;28;20041;-73
2022/03/29 00:40:10;;;;;;;4.78;4.32;;;6.40;99.90;;;;;;5054931;28;20048;-72
2022/03/29 00:42:37;;;;;;;16.67;4.10;;;6.40;99.90;;;;;;5049983;28;20512;-71
2022/03/29 00:45:03;;;;;;;9.80;4.65;;;6.40;99.90;;;;;;5055747;28;20474;-72
2022/03/29 00:47:29;;;;;;;5.90;4.40;;;6.40;99.90;;;;;;5052177;28;20076;-72
2022/03/29 00:49:55;;;;;;;6.57;3.65;;;6.40;99.90;;;;;;5059773;28;20205;-72
2022/03/29 00:52:21;;;;;;;3.88;3.58;;;6.40;99.90;;;;;;5043559;28;20045;-73
2022/03/29 00:54:48;;;;;;;7.88;4.78;;;6.30;99.90;;;;;;5056698;28;20105;-72
2022/03/29 00:57:13;;;;;;;13.40;6.10;;;6.30;99.90;;;;;;5066483;28;20060;-73
2022/03/29 00:59:42;;;;;;;8.25;5.80;;;6.30;99.90;;;;;;5061910;28;20040;-73
2022/03/29 01:02:08;;;;;;;8.10;6.00;;;6.30;99.90;;;;;;5043739;28;20489;-73
2022/03/29 01:04:33;;;;;;;4.47;4.07;;;6.30;99.90;;;;;;5053578;28;20048;-73
2022/03/29 01:06:59;;;;;;;8.60;4.03;;;6.30;99.90;;;;;;5051549;28;20052;-74
2022/03/29 01:09:26;;;;;;;4.63;3.67;;;6.20;99.90;;;;;;5053936;28;20036;-72
2022/03/29 01:11:52;;;;;;;5.03;3.78;;;6.20;99.90;;;;;;5054774;28;20048;-74
2022/03/29 01:14:20;;;;;;;11.25;6.30;;;6.20;99.90;;;;;;5054115;28;20044;-73
2022/03/29 01:19:31;;;;;;;9.35;5.53;;;6.20;99.90;;;;;;5053475;28;20058;-74
2022/03/29 01:21:58;;;;;;;3.30;3.08;;;6.20;99.90;;;;;;5031633;28;20156;-72
2022/03/29 01:24:25;;;;;;;8.40;5.25;;;6.30;99.90;;;;;;5053586;28;20432;-73
2022/03/29 01:26:53;;;;;;;6.47;4.82;;;6.20;99.90;;;;;;5051460;28;20064;-72
2022/03/29 01:29:20;;;;;;;4.93;3.92;;;6.20;99.90;;;;;;5042154;28;20044;-74
2022/03/29 01:31:49;;;;;;;5.65;5.07;;;6.20;99.90;;;;;;5037521;28;20051;-73
2022/03/29 01:34:15;;;;;;;4.28;3.58;;;6.20;99.90;;;;;;5019726;28;20105;-74
2022/03/29 01:36:40;;;;;;;;;;;6.20;99.90;;;;;;5052630;28;20048;-73
2022/03/29 01:39:06;;;;;;;5.35;4.85;;;6.20;99.90;;;;;;5053648;28;20270;-73
2022/03/29 01:41:32;;;;;;;7.18;5.78;;;6.20;99.90;;;;;;5052674;28;20071;-73
2022/03/29 01:43:59;;;;;;;3.63;3.33;;;6.10;99.90;;;;;;5066648;28;20067;-73
2022/03/29 01:46:25;;;;;;;4.78;3.97;;;6.10;99.90;;;;;;5041586;28;20115;-72
2022/03/29 01:48:51;;;;;;;4.65;4.25;;;6.10;99.90;;;;;;5053640;28;20116;-72
2022/03/29 01:51:17;;;;;;;;;;;6.10;99.90;;;;;;5050372;28;20465;-74
2022/03/29 01:53:47;;;;;;;4.10;3.55;;;6.10;99.90;;;;;;5035463;28;19922;-73
2022/03/29 01:56:13;;;;;;;7.72;3.35;;;6.10;99.90;;;;;;5024488;28;20059;-73
2022/03/29 01:58:39;;;;;;;5.25;3.55;;;6.10;99.90;;;;;;5053364;28;20458;-73
2022/03/29 02:01:05;;;;;;;5.97;4.40;;;6.10;99.90;;;;;;5049383;28;20103;-71
2022/03/29 02:03:30;;;;;;;;;;;6.10;99.90;;;;;;5049838;28;20072;-73
2022/03/29 02:05:57;;;;;;;4.93;3.95;;;6.10;99.90;;;;;;5049923;28;20267;-73
2022/03/29 02:08:23;;;;;;;4.28;3.92;;;6.10;99.90;;;;;;5032191;28;20072;-72
2022/03/29 02:10:48;;;;;;;9.52;3.72;;;6.10;99.90;;;;;;5050984;28;20049;-72
2022/03/29 02:13:14;;;;;;;7.20;4.38;;;6.10;99.90;;;;;;5049665;28;20127;-73
2022/03/29 02:15:40;;;;;;;7.07;3.70;;;6.10;99.90;;;;;;5049583;28;20140;-73
2022/03/29 02:18:07;;;;;;;3.22;2.97;;;6.20;99.90;;;;;;5053568;28;20120;-73
2022/03/29 02:20:33;;;;;;;5.18;4.45;;;6.10;99.90;;;;;;5058541;28;20359;-72
2022/03/29 02:23:02;;;;;;;;;;;6.10;99.90;;;;;;5034934;28;20040;-73
2022/03/29 02:25:29;;;;;;;4.00;3.58;;;6.10;99.90;;;;;;5053897;28;20343;-73
2022/03/29 02:27:55;;;;;;;8.32;4.13;;;6.00;99.90;;;;;;5049446;28;20048;-73
2022/03/29 02:30:20;;;;;;;;;;;6.10;99.90;;;;;;5051054;28;20486;-74
2022/03/29 02:32:46;;;;;;;3.67;3.38;;;6.10;99.90;;;;;;5033444;28;19927;-72
2022/03/29 02:35:12;;;;;;;4.97;4.43;;;6.00;99.90;;;;;;5056388;28;20052;-73
2022/03/29 02:37:38;;;;;;;7.03;4.78;;;6.00;99.90;;;;;;5053557;28;20041;-72
2022/03/29 02:40:05;;;;;;;9.57;5.30;;;6.10;99.90;;;;;;5046868;28;20043;-74
2022/03/29 02:42:32;;;;;;;5.50;3.60;;;6.00;99.90;;;;;;5049107;28;20052;-73
2022/03/29 02:44:58;;;;;;;4.70;4.25;;;6.00;99.90;;;;;;5051908;28;20397;-73
2022/03/29 02:47:24;;;;;;;6.38;4.78;;;6.00;99.90;;;;;;5034580;28;20051;-74
2022/03/29 02:49:49;;;;;;;11.45;4.55;;;6.00;99.90;;;;;;5058989;28;20090;-73
2022/03/29 02:52:15;;;;;;;7.40;4.95;;;6.00;99.90;;;;;;5049603;28;20045;-74
2022/03/29 02:54:41;;;;;;;9.88;3.88;;;5.90;99.90;;;;;;5048916;28;20076;-72
2022/03/29 02:57:07;;;;;;;7.43;4.43;;;6.00;99.90;;;;;;5032783;28;20049;-73
2022/03/29 02:59:33;;;;;;;3.95;3.40;;;6.00;99.90;;;;;;5050487;28;20037;-73
2022/03/29 03:01:59;;;;;;;4.57;3.00;;;6.00;99.90;;;;;;5052247;28;20044;-73
2022/03/29 03:04:24;;;;;;;3.70;3.05;;;6.00;99.90;;;;;;5050785;28;20068;-71
2022/03/29 03:06:50;;;;;;;4.40;2.50;;;6.00;99.90;;;;;;5048329;28;20401;-72
2022/03/29 03:09:16;;;;;;;11.00;4.68;;;6.00;99.90;;;;;;5052413;28;20041;-72
2022/03/29 03:11:41;;;;;;;5.80;4.43;;;6.00;99.90;;;;;;5045527;28;20047;-73
2022/03/29 03:14:07;;;;;;;4.78;3.50;;;6.00;99.90;;;;;;5058528;28;20525;-73
2022/03/29 03:16:33;;;;;;;4.22;3.22;;;6.00;99.90;;;;;;5035531;28;20124;-73
2022/03/29 03:18:59;;;;;;;6.50;4.75;;;6.00;99.90;;;;;;5045775;28;20123;-74
2022/03/29 03:21:24;;;;;;;10.30;6.00;;;6.00;99.90;;;;;;5051561;28;20043;-73
2022/03/29 03:23:51;;;;;;;9.15;5.78;;;6.00;99.90;;;;;;5052979;28;20140;-73
2022/03/29 03:26:16;;;;;;;7.97;4.95;;;6.00;99.90;;;;;;5039858;28;20040;-73
2022/03/29 03:28:42;;;;;;;5.20;4.70;;;6.00;99.90;;;;;;5056220;28;20089;-72
2022/03/29 03:31:08;;;;;;;7.10;6.32;;;6.10;99.90;;;;;;5057085;28;20041;-73
2022/03/29 03:33:34;;;;;;;10.02;6.03;;;6.10;99.90;;;;;;5038790;28;20048;-73
2022/03/29 03:35:59;;;;;;;6.00;4.15;;;6.10;99.90;;;;;;5054047;28;20040;-74
2022/03/29 03:38:25;;;;;;;11.35;4.63;;;6.10;99.90;;;;;;5055710;28;20370;-74
2022/03/29 03:40:51;;;;;;;7.22;5.68;;;6.10;99.90;;;;;;5059168;28;20071;-73
2022/03/29 03:43:16;;;;;;;5.97;4.32;;;6.10;99.90;;;;;;5057775;28;20182;-72
2022/03/29 03:45:42;;;;;;;8.38;4.03;;;6.00;99.90;;;;;;5055594;28;20444;-72
2022/03/29 03:48:08;;;;;;;7.68;6.20;;;6.10;99.90;;;;;;5049644;28;20047;-73
2022/03/29 03:50:34;;;;;;;3.50;3.20;;;6.10;99.90;;;;;;5052562;28;20175;-73
2022/03/29 03:53:02;;;;;;;8.02;4.32;;;6.10;99.90;;;;;;5040493;28;20121;-72
2022/03/29 03:55:28;;;;;;;9.45;4.30;;;6.10;99.90;;;;;;5056027;28;20082;-72
2022/03/29 03:57:54;;;;;;;7.57;3.63;;;6.10;99.90;;;;;;5055453;28;20068;-73
2022/03/29 04:00:21;;;;;;;12.25;5.55;;;6.10;99.90;;;;;;5027150;28;20063;-73
2022/03/29 04:02:50;;;;;;;9.52;5.28;;;6.20;99.90;;;;;;5057405;28;20048;-74
2022/03/29 04:05:16;;;;;;;7.28;5.97;;;6.10;99.90;;;;;;5042846;28;20336;-73
2022/03/29 04:07:42;;;;;;;;;;;6.10;99.90;;;;;;5048181;28;20059;-71
2022/03/29 04:10:09;;;;;;;5.78;3.80;;;6.10;99.90;;;;;;5054947;28;20276;-74
2022/03/29 04:12:36;;;;;;;5.18;4.65;;;6.10;99.90;;;;;;5055155;28;20142;-71
2022/03/29 04:15:03;;;;;;;8.45;5.18;;;6.10;99.90;;;;;;5055870;28;20040;-73
2022/03/29 04:17:29;;;;;;;9.38;4.43;;;6.10;99.90;;;;;;5039907;28;20036;-73
2022/03/29 04:19:55;;;;;;;13.85;3.45;;;6.10;99.90;;;;;;5054923;28;20066;-73
2022/03/29 04:22:21;;;;;;;7.78;4.95;;;6.10;99.90;;;;;;5071805;28;20043;-72
2022/03/29 04:24:46;;;;;;;9.65;4.47;;;6.10;99.90;;;;;;5054952;28;20135;-72
2022/03/29 04:27:12;;;;;;;4.13;3.40;;;6.10;99.90;;;;;;5055682;28;20040;-74
2022/03/29 04:29:38;;;;;;;14.82;4.63;;;6.10;99.90;;;;;;5054819;28;20147;-73
2022/03/29 04:32:04;;;;;;;5.82;4.75;;;6.10;99.90;;;;;;5054767;28;20098;-73
2022/03/29 04:34:30;;;;;;;;;;;6.10;99.90;;;;;;5055381;28;20370;-74
2022/03/29 04:36:58;;;;;;;6.68;5.03;;;6.10;99.90;;;;;;5053458;28;19924;-74
2022/03/29 04:39:25;;;;;;;8.18;5.15;;;6.10;99.90;;;;;;5056745;28;20041;-72
2022/03/29 04:41:51;;;;;;;5.28;4.78;;;6.10;99.90;;;;;;5037399;28;20040;-73
2022/03/29 04:44:16;;;;;;;5.90;5.05;;;6.10;99.90;;;;;;5053113;28;20048;-75
2022/03/29 04:46:42;;;;;;;4.80;4.30;;;6.10;99.90;;;;;;5056557;28;22246;-74
2022/03/29 04:49:08;;;;;;;13.77;6.47;;;6.10;99.90;;;;;;5060252;28;20043;-74
2022/03/29 04:51:34;;;;;;;5.43;4.60;;;6.10;99.90;;;;;;5069874;28;20052;-73
2022/03/29 04:54:01;;;;;;;10.45;4.82;;;6.10;99.90;;;;;;5037379;28;20033;-74
2022/03/29 04:56:27;;;;;;;10.00;5.10;;;6.10;99.90;;;;;;5021072;28;20485;-73
2022/03/29 04:58:52;;;;;;;6.15;3.92;;;6.10;99.90;;;;;;5032851;28;20040;-74
2022/03/29 05:01:18;;;;;;;9.52;4.05;;;6.00;99.90;;;;;;5054228;28;20649;-74
2022/03/29 05:03:44;;;;;;;9.95;7.88;;;6.10;99.90;;;;;;5071608;28;20044;-75
2022/03/29 05:06:10;;;;;;;4.55;3.55;;;6.00;99.90;;;;;;5046692;28;20053;-72
2022/03/29 05:08:36;;;;;;;10.60;6.35;;;6.00;99.90;;;;;;5057096;28;20048;-74
2022/03/29 05:11:02;;;;;;;7.72;4.63;;;6.00;99.90;;;;;;5063832;28;20043;-73
2022/03/29 05:13:28;;;;;;;10.50;5.78;;;6.00;99.90;;;;;;5054295;28;20459;-73
2022/03/29 05:15:55;;;;;;;9.60;5.32;;;6.00;99.90;;;;;;5053908;28;20057;-75
2022/03/29 05:18:21;;;;;;;11.30;6.00;;;6.00;99.90;;;;;;5053609;28;20037;-74
2022/03/29 05:20:46;;;;;;;7.47;4.85;;;6.00;99.90;;;;;;5058502;28;20025;-74
2022/03/29 05:23:15;;;;;;;8.07;5.70;;;6.00;99.90;;;;;;5052462;28;20509;-74
2022/03/29 05:25:42;;;;;;;11.18;5.47;;;6.00;99.90;;;;;;5054632;28;20123;-73
2022/03/29 05:28:09;;;;;;;8.88;4.80;;;6.10;99.90;;;;;;5053188;28;20466;-74
2022/03/29 05:30:35;;;;;;;9.43;5.60;;;6.00;99.90;;;;;;5054226;28;20112;-74
2022/03/29 05:33:02;;;;;;;6.68;5.72;;;6.10;99.90;;;;;;5051090;28;20359;-73
2022/03/29 05:35:30;;;;;;;10.32;6.05;;;6.10;99.90;;;;;;5046339;28;20040;-73
2022/03/29 05:37:58;;;;;;;6.60;4.70;;;6.10;99.90;;;;;;5034448;28;20174;-74
2022/03/29 05:40:25;;;;;;;9.45;4.78;;;6.10;99.90;;;;;;5053868;28;20063;-73
2022/03/29 05:42:52;;;;;;;7.32;4.35;;;6.10;99.90;;;;;;5052786;28;20082;-74
2022/03/29 05:45:18;;;;;;;9.55;7.00;;;6.10;99.90;;;;;;5034822;28;20454;-74
2022/03/29 05:50:29;;;;;;;7.20;4.38;;;6.10;99.90;;;;;;5056054;28;20432;-76
2022/03/29 05:52:56;;;;;;;8.05;5.75;;;6.10;99.90;;;;;;5050919;28;20481;-75
2022/03/29 05:55:22;;;;;;;13.75;4.75;;;6.10;99.90;;;;;;5037624;28;20071;-76
2022/03/29 05:57:49;;;;;;;5.00;3.92;;;6.10;99.90;;;;;;5028107;28;20175;-76
2022/03/29 06:00:17;;;;;;;4.68;4.07;;;6.10;99.90;;;;;;5049742;28;20048;-76
2022/03/29 06:02:43;;;;;;;7.18;4.68;;;6.20;99.90;;;;;;5059991;28;20146;-77
2022/03/29 06:05:09;;;;;;;;;;;6.20;99.90;;;;;;5039293;28;20045;-76
2022/03/29 06:07:35;;;;;;;4.43;3.28;;;6.20;99.90;;;;;;5038219;28;19920;-76
2022/03/29 06:10:02;;;;;;;;;;;6.20;99.90;;;;;;5036739;28;20078;-77
2022/03/29 06:12:27;;;;;;;7.27;5.73;;;6.20;99.90;;;;;;5033717;28;20365;-76
2022/03/29 06:15:08;;;;;;;4.97;4.25;;;6.20;99.90;;;;;;5029463;28;20817;-76
2022/03/29 06:17:35;;;;;;;9.68;6.38;;;6.30;99.90;;;;;;5025155;28;20064;-75
2022/03/29 06:20:06;;;;;;;6.57;4.30;;;6.30;99.90;;;;;;5048594;28;20032;-76
2022/03/29 06:22:37;;;;;;;5.10;4.60;;;6.30;99.90;;;;;;5025667;28;20128;-75
2022/03/29 06:25:10;;;;;;;6.32;4.50;;;6.30;99.90;;;;;;5066480;28;20067;-75
2022/03/29 06:27:36;;;;;;;11.75;6.28;;;6.30;99.90;;;;;;5049047;28;20173;-74
2022/03/29 06:30:04;;;;;;;5.47;4.90;;;6.30;99.90;;;;;;5033052;28;20091;-76
2022/03/29 06:32:30;;;;;;;9.65;3.83;;;6.40;99.90;;;;;;5047384;28;20124;-76
2022/03/29 06:34:55;;;;;;;11.85;6.25;;;6.40;99.90;;;;;;5050197;28;20580;-73
2022/03/29 06:37:24;;;;;;;7.85;5.82;;;6.40;99.90;;;;;;5067580;28;20049;-74
2022/03/29 06:39:50;;;;;;;5.50;5.00;;;6.40;99.90;;;;;;5045144;28;20480;-74
2022/03/29 06:42:18;;;;;;;6.93;5.32;;;6.50;99.90;;;;;;5049633;28;20032;-75
2022/03/29 06:44:45;;;;;;;7.80;5.45;;;6.50;99.90;;;;;;5056173;28;20048;-75
2022/03/29 06:47:11;;;;;;;6.35;5.15;;;6.50;99.90;;;;;;5049338;28;20040;-75
2022/03/29 06:49:37;;;;;;;;;;;6.60;99.90;;;;;;5025173;28;20135;-74
2022/03/29 06:52:03;;;;;;;7.80;5.88;;;6.50;99.90;;;;;;5033969;28;20318;-75
2022/03/29 06:54:30;;;;;;;9.13;6.25;;;6.50;99.90;;;;;;5025744;28;20044;-74
2022/03/29 06:57:02;;;;;;;5.57;3.63;;;6.50;99.90;;;;;;5049406;28;20400;-79
2022/03/29 06:59:34;;;;;;;6.82;5.43;;;6.60;99.90;;;;;;5047324;28;20055;-73
2022/03/29 07:02:06;;;;;;;10.73;6.63;;;6.60;99.90;;;;;;5029292;28;20045;-75
2022/03/29 07:04:34;;;;;;;10.38;5.28;;;6.60;99.90;;;;;;4988742;28;20056;-78
2022/03/29 07:07:00;;;;;;;14.07;7.10;;;6.70;99.90;;;;;;5004465;28;20057;-74
2022/03/29 07:12:11;;;;;;;5.90;4.97;;;6.80;99.90;;;;;;5021906;28;20057;-74
2022/03/29 07:14:37;;;;;;;12.20;7.88;;;6.90;99.90;;;;;;5011147;28;20044;-75
2022/03/29 07:17:07;;;;;;;4.75;3.65;;;7.00;99.90;;;;;;5023342;28;20402;-74
2022/03/29 07:19:33;;;;;;;8.80;4.72;;;7.10;99.90;;;;;;4996228;28;20140;-74
2022/03/29 07:21:59;;;;;;;7.38;5.07;;;7.20;99.90;;;;;;5005248;28;20128;-74
2022/03/29 07:24:24;;;;;;;9.75;6.38;;;7.20;99.90;;;;;;5009110;28;20100;-74
2022/03/29 07:26:50;;;;;;;6.43;4.93;;;7.30;99.90;;;;;;5010135;28;20076;-74
2022/03/29 07:29:17;;;;;;;5.20;4.65;;;7.40;99.90;;;;;;5020495;28;20046;-75
2022/03/29 07:31:43;;;;;;;6.57;5.38;;;7.40;99.90;;;;;;5001582;28;20128;-74
2022/03/29 07:34:08;;;;;;;7.07;5.97;;;7.50;99.90;;;;;;5024759;28;20181;-75
2022/03/29 07:36:34;;;;;;;7.60;6.68;;;7.60;99.90;;;;;;5024312;28;20096;-73
2022/03/29 07:39:00;;;;;;;7.68;5.88;;;7.60;99.90;;;;;;5006373;28;20053;-75
2022/03/29 07:41:26;;;;;;;6.50;4.78;;;7.70;99.90;;;;;;5025193;28;20037;-75
2022/03/29 07:43:51;;;;;;;8.95;5.13;;;7.80;99.90;;;;;;5028143;28;20617;-75
2022/03/29 07:46:17;;;;;;;7.28;5.57;;;7.80;99.90;;;;;;5018603;28;20037;-76
2022/03/29 07:48:43;;;;;;;11.10;5.40;;;7.90;99.90;;;;;;5006627;28;20073;-75
2022/03/29 07:51:11;;;;;;;4.15;3.25;;;8.00;99.90;;;;;;5024234;28;20133;-76
2022/03/29 07:53:37;;;;;;;5.97;3.75;;;8.10;99.90;;;;;;5013873;28;20053;-74
2022/03/29 07:56:04;;;;;;;11.82;5.57;;;8.10;99.90;;;;;;5025000;28;20135;-75
2022/03/29 07:58:30;;;;;;;6.47;4.78;;;8.20;99.90;;;;;;5029712;28;20052;-74
2022/03/29 08:00:56;;;;;;;9.00;5.43;;;8.30;99.90;;;;;;5011082;28;20057;-74
2022/03/29 08:03:22;;;;;;;10.35;4.97;;;8.30;99.90;;;;;;5025641;28;20100;-74
2022/03/29 08:05:48;;;;;;;;;;;8.30;99.90;;;;;;5010736;28;20041;-78
2022/03/29 08:08:15;;;;;;;10.47;2.63;;;8.20;99.90;;;;;;5032078;28;19928;-76
2022/03/29 08:10:45;;;;;;;5.18;4.18;;;8.20;99.90;;;;;;5030022;28;20049;-75
2022/03/29 08:13:14;;;;;;;5.78;3.95;;;8.20;99.90;;;;;;5033275;28;20047;-75
2022/03/29 08:15:43;;;;;;;11.93;5.78;;;8.20;99.90;;;;;;5016610;28;20071;-76
2022/03/29 08:18:09;;;;;;;3.92;3.15;;;8.40;99.90;;;;;;5022724;28;20053;-76
2022/03/29 08:20:36;;;;;;;3.72;2.85;;;8.40;99.90;;;;;;5028161;28;20033;-77
2022/03/29 08:23:02;;;;;;;4.03;3.42;;;8.40;99.90;;;;;;5031286;28;20071;-76
2022/03/29 08:25:29;;;;;;;7.32;3.80;;;8.50;99.90;;;;;;5028901;28;20407;-75
2022/03/29 08:27:56;;;;;;;7.50;4.32;;;8.60;99.90;;;;;;5031247;28;20053;-75
2022/03/29 08:30:23;;;;;;;14.93;3.88;;;8.70;99.90;;;;;;5014099;28;20084;-76
2022/03/29 08:32:49;;;;;;;3.60;2.78;;;8.90;99.90;;;;;;5011676;28;20041;-76
2022/03/29 08:35:15;;;;;;;7.00;4.55;;;8.90;99.90;;;;;;5007511;28;20616;-76
2022/03/29 08:37:41;;;;;;;6.28;4.90;;;8.80;99.90;;;;;;5011799;28;20076;-76
2022/03/29 08:40:13;;;;;;;11.00;3.70;;;8.70;99.90;;;;;;5021706;28;20048;-78
2022/03/29 08:42:42;;;;;;;4.18;2.95;;;8.70;99.90;;;;;;5029649;28;20099;-74
2022/03/29 08:45:09;;;;;;;5.00;2.65;;;8.70;99.90;;;;;;5038324;28;20053;-75
2022/03/29 08:47:35;;;;;;;6.40;3.13;;;8.70;99.90;;;;;;5029165;28;20119;-75
2022/03/29 08:50:04;;;;;;;5.45;2.88;;;8.70;99.90;;;;;;5012525;28;20052;-75
2022/03/29 08:52:31;;;;;;;3.50;2.38;;;8.70;99.90;;;;;;5031332;28;20037;-78
2022/03/29 08:54:57;;;;;;;3.75;2.60;;;8.70;99.90;;;;;;5003831;28;20042;-75
2022/03/29 08:57:22;;;;;;;2.38;2.00;;;8.70;99.90;;;;;;5032717;28;20107;-75
2022/03/29 08:59:48;;;;;;;7.72;3.55;;;8.70;99.90;;;;;;5031025;28;20044;-75
2022/03/29 09:02:16;;;;;;;3.67;2.67;;;8.70;99.90;;;;;;5042057;28;20478;-74
2022/03/29 09:04:43;;;;;;;5.53;3.17;;;8.80;99.90;;;;;;5047831;28;20045;-72
2022/03/29 09:07:10;;;;;;;9.00;2.40;;;8.80;99.90;;;;;;5046687;28;20059;-77
2022/03/29 09:09:38;;;;;;;8.27;2.83;;;8.80;99.90;;;;;;5048719;28;20156;-74
2022/03/29 09:12:16;;;;;;;8.43;3.08;;;8.90;99.90;;;;;;5002191;28;20775;-73
2022/03/29 09:15:00;;;;;;;1.88;1.77;;;9.00;99.90;;;;;;5048170;28;20393;-73
2022/03/29 09:17:39;;;;;;;5.97;1.48;;;9.10;99.90;;;;;;5030997;28;20059;-77
2022/03/29 09:20:08;;;;;;;7.43;2.85;;;9.20;99.90;;;;;;5046479;28;20045;-77
2022/03/29 09:22:39;;;;;;;3.45;2.33;;;9.40;99.90;;;;;;5064930;28;20076;-79
2022/03/29 09:25:05;;;;;;;3.40;1.95;;;9.50;99.90;;;;;;5049043;28;20474;-74
2022/03/29 09:27:48;;;;;;;8.35;3.00;;;9.50;99.90;;;;;;5059919;28;20091;-78
2022/03/29 09:30:14;;;;;;;6.57;3.75;;;9.70;99.90;;;;;;5040090;28;20434;-75
2022/03/29 09:32:56;;;;;;;5.38;3.13;;;9.70;99.90;;;;;;5039111;28;20770;-76
2022/03/29 09:35:22;;;;;;;7.40;3.33;;;9.80;99.90;;;;;;5051600;28;20106;-75
2022/03/29 09:37:48;;;;;;;3.85;2.95;;;9.80;99.90;;;;;;5056703;28;20045;-76
2022/03/29 09:40:14;;;;;;;6.63;3.78;;;9.90;99.90;;;;;;5047651;28;20495;-77
2022/03/29 09:42:40;;;;;;;;;;;10.00;99.90;;;;;;5031391;28;20098;-75
2022/03/29 09:45:08;;;;;;;12.20;4.05;;;10.10;99.90;;;;;;5030894;28;19924;-75
2022/03/29 09:47:35;;;;;;;10.85;3.55;;;10.20;99.90;;;;;;5046498;28;20120;-75
2022/03/29 09:50:08;;;;;;;2.72;1.95;;;10.20;99.90;;;;;;5048143;28;20170;-77
2022/03/29 09:52:39;;;;;;;6.60;3.42;;;10.20;99.90;;;;;;5030388;28;20049;-77
2022/03/29 09:55:17;;;;;;;5.55;2.63;;;10.30;99.90;;;;;;5017788;28;20052;-76
2022/03/29 09:57:47;;;;;;;5.90;2.00;;;10.30;99.90;;;;;;5053909;28;20128;-77
2022/03/29 10:00:17;;;;;;;3.45;2.25;;;10.30;99.90;;;;;;5045979;28;20121;-77
2022/03/29 10:02:47;;;;;;;2.33;2.10;;;10.40;99.90;;;;;;5038621;28;20056;-76
2022/03/29 10:05:16;;;;;;;8.13;3.40;;;10.40;99.90;;;;;;5033489;28;20052;-76
2022/03/29 10:09:25;;;;;;;3.28;2.22;;;10.40;99.90;;;;;;5049774;28;20052;-78
2022/03/29 10:10:44;;;;;;;6.70;2.17;;;10.40;99.90;;;;;;5051382;28;20052;-80
2022/03/29 10:13:11;;;;;;;5.07;3.10;;;10.30;99.90;;;;;;5058007;28;20123;-77
2022/03/29 10:15:38;;;;;;;5.32;2.28;;;10.20;99.90;;;;;;5052247;28;20052;-79
2022/03/29 10:18:04;;;;;;;7.35;2.30;;;10.10;99.90;;;;;;5035712;28;20052;-81
2022/03/29 10:20:31;;;;;;;4.75;2.53;;;10.10;99.90;;;;;;5037222;28;20044;-76
2022/03/29 10:22:59;;;;;;;5.10;2.63;;;10.10;99.90;;;;;;5048506;28;20068;-79
2022/03/29 10:25:26;;;;;;;8.82;3.38;;;10.20;99.90;;;;;;5044176;28;20059;-78
2022/03/29 10:27:53;;;;;;;3.67;2.13;;;10.40;99.90;;;;;;5035285;28;20037;-76
2022/03/29 10:30:42;;;;;;;7.55;2.80;;;10.50;99.90;;;;;;5062790;28;20103;-80
2022/03/29 10:33:24;;;;;;;6.55;3.42;;;10.60;99.90;;;;;;5069327;28;20137;-75
2022/03/29 10:35:59;;;;;;;9.35;3.50;;;10.70;99.90;;;;;;5034904;28;20453;-75
2022/03/29 10:38:43;;;;;;;3.88;2.65;;;10.60;99.90;;;;;;5063833;28;20063;-76
2022/03/29 10:41:32;;;;;;;6.32;3.47;;;10.60;99.90;;;;;;5050567;28;20067;-78
2022/03/29 10:44:05;;;;;;;4.38;2.47;;;10.70;99.90;;;;;;5039180;28;20143;-80
2022/03/29 10:46:37;;;;;;;5.35;2.03;;;10.60;99.90;;;;;;5050015;28;20028;-76
2022/03/29 10:49:22;;;;;;;6.82;2.03;;;10.70;99.90;;;;;;5049825;28;20485;-79
2022/03/29 10:52:15;;;;;;;5.80;2.83;;;11.00;99.90;;;;;;5048239;28;20036;-79
2022/03/29 10:54:41;;;;;;;7.47;2.28;;;11.10;99.90;;;;;;5031626;28;20044;-73
2022/03/29 10:57:32;;;;;;;7.25;3.72;;;11.20;99.90;;;;;;5051351;28;20045;-75
2022/03/29 11:00:07;;;;;;;6.72;3.60;;;11.00;99.90;;;;;;5039528;28;20071;-73
2022/03/29 11:02:33;;;;;;;6.65;2.42;;;11.20;99.90;;;;;;5048124;28;20091;-77
2022/03/29 11:05:12;;;;;;;7.57;2.47;;;11.30;99.90;;;;;;5049223;28;20051;-75
2022/03/29 11:07:50;;;;;;;11.35;3.15;;;11.40;99.90;;;;;;5069911;28;20090;-75
2022/03/29 11:10:21;;;;;;;2.88;2.50;;;11.40;99.90;;;;;;5044465;28;20052;-74
2022/03/29 11:12:49;;;;;;;5.68;3.28;;;11.30;99.90;;;;;;5043500;28;20040;-78
2022/03/29 11:15:24;;;;;;;4.30;2.70;;;11.10;99.90;;;;;;5049654;28;20536;-75
2022/03/29 11:17:54;;;;;;;5.80;2.60;;;11.00;99.90;;;;;;5049066;28;20122;-74
2022/03/29 11:20:36;;;;;;;4.40;2.25;;;10.90;99.90;;;;;;5047051;28;20036;-74
2022/03/29 11:23:08;;;;;;;9.75;2.75;;;10.70;99.90;;;;;;5053795;28;20063;-77
2022/03/29 11:25:45;;;;;;;4.70;2.72;;;10.40;99.90;;;;;;5050032;28;20059;-76
2022/03/29 11:28:16;;;;;;;6.03;3.80;;;10.30;99.90;;;;;;5030866;28;20386;-75
2022/03/29 11:30:42;;;;;;;10.95;3.50;;;10.30;99.90;;;;;;5026751;28;20052;-76
2022/03/29 11:33:10;;;;;;;7.97;4.15;;;10.20;99.90;;;;;;5030170;28;20079;-78
2022/03/29 11:35:38;;;;;;;4.63;3.05;;;10.20;99.90;;;;;;5015931;28;20071;-74
2022/03/29 11:38:12;;;;;;;5.05;2.13;;;10.20;99.90;;;;;;5027512;28;20060;-75
2022/03/29 11:40:38;;;;;;;5.28;2.72;;;10.10;99.90;;;;;;5047168;28;20048;-74
2022/03/29 11:43:10;;;;;;;4.40;2.75;;;10.10;99.90;;;;;;5052258;28;20050;-75
2022/03/29 11:45:42;;;;;;;12.75;3.00;;;10.00;99.90;;;;;;5053902;28;20044;-75
2022/03/29 11:48:14;;;;;;;8.10;2.30;;;10.10;99.90;;;;;;5050244;28;20047;-74
2022/03/29 11:50:45;;;;;;;7.38;3.05;;;10.10;99.90;;;;;;5044989;28;20055;-75
2022/03/29 11:53:30;;;;;;;4.80;2.65;;;10.20;99.90;;;;;;5049502;28;20048;-76
2022/03/29 11:56:05;;;;;;;3.95;2.90;;;10.30;99.90;;;;;;5035734;28;20051;-75
2022/03/29 11:58:38;;;;;;;4.78;2.50;;;10.30;99.90;;;;;;5053945;28;20040;-76
2022/03/29 12:01:11;;;;;;;6.95;2.90;;;10.30;99.90;;;;;;5044502;28;20048;-75
2022/03/29 12:03:43;;;;;;;4.03;2.85;;;10.20;99.90;;;;;;5049821;28;20163;-73
2022/03/29 12:06:29;;;;;;;6.65;3.08;;;10.30;99.90;;;;;;5039010;28;20055;-75
2022/03/29 12:09:02;;;;;;;3.08;2.35;;;10.40;99.90;;;;;;5043949;28;20052;-75
2022/03/29 12:11:30;;;;;;;10.38;3.13;;;10.50;99.90;;;;;;5053106;28;20048;-75
2022/03/29 12:14:08;;;;;;;10.43;3.30;;;10.60;99.90;;;;;;5052498;28;20048;-76
2022/03/29 12:16:38;;;;;;;4.18;1.92;;;10.70;99.90;;;;;;5051917;28;20052;-74
2022/03/29 12:19:16;;;;;;;2.90;2.13;;;10.70;99.90;;;;;;5041515;28;20453;-77
2022/03/29 12:21:48;;;;;;;7.25;2.88;;;10.70;99.90;;;;;;5050251;28;20064;-75
2022/03/29 12:24:16;;;;;;;3.08;2.65;;;10.70;99.90;;;;;;5033967;28;20060;-73
2022/03/29 12:26:48;;;;;;;3.67;2.45;;;10.60;99.90;;;;;;5050432;28;20048;-78
2022/03/29 12:29:18;;;;;;;9.02;3.88;;;10.60;99.90;;;;;;5049096;28;20076;-73
2022/03/29 12:31:44;;;;;;;21.85;4.15;;;10.60;99.90;;;;;;5042624;28;20381;-76
2022/03/29 12:34:12;;;;;;;4.13;2.60;;;10.60;99.90;;;;;;5051411;28;20082;-74
2022/03/29 12:36:48;;;;;;;5.63;3.40;;;10.60;99.90;;;;;;5034369;28;20078;-74
2022/03/29 12:39:14;;;;;;;8.30;3.63;;;10.70;99.90;;;;;;5035944;28;20127;-75
2022/03/29 12:41:46;;;;;;;9.63;4.03;;;10.70;99.90;;;;;;5034976;28;20143;-75
2022/03/29 12:44:14;;;;;;;4.45;2.55;;;10.70;99.90;;;;;;5064849;28;20093;-76
2022/03/29 12:46:42;;;;;;;7.70;3.28;;;10.70;99.90;;;;;;5033404;28;20564;-74
2022/03/29 12:49:08;;;;;;;7.03;3.92;;;10.70;99.90;;;;;;5051146;28;20033;-75
2022/03/29 12:51:37;;;;;;;6.72;2.65;;;10.70;99.90;;;;;;5068147;28;20056;-76
2022/03/29 12:54:08;;;;;;;10.50;3.63;;;10.70;99.90;;;;;;5053508;28;20048;-76
2022/03/29 12:56:38;;;;;;;4.25;2.30;;;10.90;99.90;;;;;;5049597;28;20072;-74
2022/03/29 12:59:26;;;;;;;5.15;3.08;;;11.00;99.90;;;;;;5029820;28;20055;-76
2022/03/29 13:01:51;;;;;;;6.88;3.55;;;11.10;99.90;;;;;;5066470;28;20052;-74
2022/03/29 13:04:17;;;;;;;6.00;3.05;;;11.10;99.90;;;;;;5048453;28;20110;-76
2022/03/29 13:06:45;;;;;;;15.50;4.55;;;11.00;99.90;;;;;;5044779;28;20044;-75
2022/03/29 13:09:16;;;;;;;3.65;2.60;;;11.10;99.90;;;;;;5035653;28;20517;-74
2022/03/29 13:11:42;;;;;;;11.60;4.85;;;11.20;99.90;;;;;;5050053;28;20041;-73